Flight Number: EUR2234 Duration: 1:45
Departure: Skopje Airport (LWSK) at 21:20 Distance: 566 Nm
Arrival: Munich Int'l (EDDM) at 23:05 Equipment: B737

Weather Information
Skopje-Petrovec, Macedonia, The Republic of (LWSK) 41-58N 021-39E 239M Feb 24, 2018 - 01:00 AM EST / 2018.02.24 0600 UTC
Wind: from the ESE (110 degrees) at 2 MPH (2 KT):0
Visibility: greater than 7 mile(s):0
Sky conditions: mostly cloudy Temperature: 42 F (6 C) Dew Point: 39 F (4 C) Relative Humidity: 86% Pressure (altimeter): 29.80 in. Hg (1009 hPa)
ob: LWSK 240600Z 11002KT 9999 SCT030 BKN075 06/04 Q1009 NOSIG cycle: 6
Sunrise: 05:18 Sunset: 16:14 (UTC)

Munchen, Germany (EDDM) 48-21N 011-47E Feb 24, 2018 - 12:50 AM EST / 2018.02.24 0550 UTC
Wind: from the ENE (070 degrees) at 12 MPH (10 KT):0
Visibility: greater than 7 mile(s):0
Sky conditions: partly cloudy Temperature: 23 F (-5 C)
Windchill: 12 F (-11 C):1 Dew Point: 17 F (-8 C) Relative Humidity: 79% Pressure (altimeter): 30.03 in. Hg (1017 hPa)
ob: EDDM 240550Z 07010KT 9999 SCT018 M05/M08 Q1017 NOSIG cycle: 6
Sunrise: 06:06 Sunset: 16:45 (UTC)

TAF:2018/02/24 06:27 TAF EDDM 240500Z 2406/2512 07012KT 9999 SCT020 BECMG 2407/2409 07015G25KT BECMG 2418/2420 07012KT

Previous Pireps for this route
Date Aircraft Flight time Fuel used Landing rate On time
2013-07-24B73701.5211200-241Yes
2014-01-03B73702.1319437-490No
2014-11-05B73701.4310476-121Yes
(pireps marked green are flown by you)

Route map